createdAt,value
2018-08-17T00:01:00.547Z,21.03
2018-08-17T00:03:30.666Z,19.67
2018-08-17T00:06:00.837Z,21.73
2018-08-17T00:08:30.968Z,23.53
2018-08-17T00:11:01.195Z,18.67
2018-08-17T00:13:31.312Z,17.70
2018-08-17T00:16:01.502Z,17.87
2018-08-17T00:18:32.069Z,22.77
2018-08-17T00:21:02.201Z,21.80
2018-08-17T00:23:32.378Z,16.80
2018-08-17T00:26:02.485Z,21.97
2018-08-17T00:28:32.611Z,20.80
2018-08-17T00:31:02.805Z,26.10
2018-08-17T00:33:32.984Z,21.00
2018-08-17T00:36:03.098Z,21.73
2018-08-17T00:38:33.186Z,21.00
2018-08-17T00:41:03.299Z,20.43
2018-08-17T00:43:33.490Z,17.97
2018-08-17T00:46:03.788Z,22.13
2018-08-17T00:48:33.880Z,18.13
2018-08-17T00:51:04.053Z,21.93
2018-08-17T00:53:34.310Z,21.37
2018-08-17T00:56:04.517Z,20.40
2018-08-17T00:58:34.699Z,22.40
2018-08-17T01:01:04.992Z,19.10
2018-08-17T01:03:35.144Z,18.80
2018-08-17T01:06:05.328Z,20.17
2018-08-17T01:08:35.518Z,19.53
2018-08-17T01:11:05.773Z,21.40
2018-08-17T01:13:35.968Z,23.73
2018-08-17T01:16:06.205Z,23.27
2018-08-17T01:18:36.382Z,19.97
2018-08-17T01:21:06.599Z,18.67
2018-08-17T01:23:36.715Z,20.10
2018-08-17T01:26:06.879Z,18.60
2018-08-17T01:28:37.075Z,24.40
2018-08-17T01:31:07.284Z,21.90
2018-08-17T01:33:37.377Z,19.20
2018-08-17T01:36:07.451Z,17.23
2018-08-17T01:38:37.574Z,20.17
2018-08-17T01:41:07.721Z,21.57
2018-08-17T01:43:37.850Z,17.80
2018-08-17T01:46:08.072Z,21.80
2018-08-17T01:48:38.181Z,19.83
2018-08-17T01:51:08.331Z,22.80
2018-08-17T01:53:38.536Z,23.30
2018-08-17T01:56:08.644Z,22.40
2018-08-17T01:58:38.740Z,25.67
2018-08-17T02:01:08.891Z,20.60
2018-08-17T02:03:38.995Z,27.20
2018-08-17T02:06:09.191Z,29.83
2018-08-17T02:08:39.341Z,24.07
2018-08-17T02:11:09.553Z,25.53
2018-08-17T02:13:39.636Z,21.87
2018-08-17T02:16:09.804Z,23.73
2018-08-17T02:18:40.159Z,23.13
2018-08-17T02:21:10.426Z,20.83
2018-08-17T02:23:40.577Z,20.17
2018-08-17T02:26:10.658Z,19.90
2018-08-17T02:28:40.860Z,16.70
2018-08-17T02:31:10.940Z,23.60
2018-08-17T02:33:41.024Z,21.40
2018-08-17T02:36:11.128Z,21.73
2018-08-17T02:38:41.236Z,21.13
2018-08-17T02:41:11.367Z,15.60
2018-08-17T02:43:41.509Z,17.13
2018-08-17T02:46:11.599Z,21.53
2018-08-17T02:48:41.766Z,16.10
2018-08-17T02:51:12.011Z,13.93
2018-08-17T02:53:42.244Z,15.87
2018-08-17T02:56:12.461Z,14.47
2018-08-17T02:58:42.621Z,13.83
2018-08-17T03:01:12.903Z,11.83
2018-08-17T03:03:42.997Z,13.47
2018-08-17T03:06:13.063Z,13.93
2018-08-17T03:08:43.167Z,15.17
2018-08-17T03:11:13.329Z,12.27
2018-08-17T03:13:43.420Z,11.73
2018-08-17T03:16:13.480Z,10.73
2018-08-17T03:18:43.576Z,12.67
2018-08-17T03:21:13.681Z,13.50
2018-08-17T03:23:43.849Z,11.70
2018-08-17T03:26:13.947Z,9.47
2018-08-17T03:28:44.096Z,11.30
2018-08-17T03:31:14.151Z,13.30
2018-08-17T03:33:44.252Z,10.87
2018-08-17T03:36:14.369Z,10.33
2018-08-17T03:38:44.502Z,13.40
2018-08-17T03:41:14.630Z,10.63
2018-08-17T03:43:44.745Z,9.87
2018-08-17T03:46:14.919Z,11.70
2018-08-17T03:48:45.028Z,15.43
2018-08-17T03:51:15.126Z,10.20
2018-08-17T03:53:45.197Z,13.20
2018-08-17T03:56:15.471Z,11.90
2018-08-17T03:58:45.661Z,13.00
2018-08-17T04:01:15.828Z,13.60
2018-08-17T04:03:45.950Z,12.50
2018-08-17T04:06:16.135Z,14.27
2018-08-17T04:08:46.268Z,11.17
2018-08-17T04:11:16.340Z,11.00
2018-08-17T04:13:46.470Z,10.83
2018-08-17T04:16:16.558Z,11.80
2018-08-17T04:18:50.609Z,10.60
2018-08-17T04:21:20.809Z,11.67
2018-08-17T04:23:51.043Z,12.20
2018-08-17T04:26:21.365Z,9.93
2018-08-17T04:28:51.859Z,12.60
2018-08-17T04:31:22.199Z,9.37
2018-08-17T04:33:52.327Z,9.90
2018-08-17T04:36:22.433Z,10.70
2018-08-17T04:38:52.518Z,11.13
2018-08-17T04:41:22.506Z,12.63
2018-08-17T04:43:52.612Z,8.93
2018-08-17T04:46:22.809Z,8.37
2018-08-17T04:48:52.939Z,9.50
2018-08-17T04:51:23.024Z,8.20
2018-08-17T04:53:53.161Z,8.73
2018-08-17T04:56:23.203Z,9.37
2018-08-17T04:58:53.396Z,8.67
2018-08-17T05:01:23.486Z,9.20
2018-08-17T05:03:53.772Z,9.30
2018-08-17T05:06:23.953Z,11.93
2018-08-17T05:08:54.091Z,11.40
2018-08-17T05:11:24.277Z,9.57
2018-08-17T05:13:54.357Z,11.07
2018-08-17T05:16:24.528Z,15.50
2018-08-17T05:18:54.871Z,12.93
2018-08-17T05:21:24.975Z,13.43
2018-08-17T05:23:55.139Z,15.03
2018-08-17T05:26:25.230Z,12.17
2018-08-17T05:28:55.382Z,10.20
2018-08-17T05:31:25.469Z,11.87
2018-08-17T05:33:55.583Z,16.23
2018-08-17T05:36:25.715Z,16.63
2018-08-17T05:38:55.888Z,17.40
2018-08-17T05:41:25.983Z,17.27
2018-08-17T05:43:56.084Z,13.83
2018-08-17T05:46:26.242Z,13.13
2018-08-17T05:48:56.557Z,15.20
2018-08-17T05:51:26.718Z,18.97
2018-08-17T05:53:56.886Z,13.23
2018-08-17T05:56:26.992Z,16.53
2018-08-17T05:58:57.200Z,11.37
2018-08-17T06:01:27.403Z,18.73
2018-08-17T06:03:57.578Z,17.07
2018-08-17T06:06:27.656Z,12.57
2018-08-17T06:08:57.751Z,14.97
2018-08-17T06:11:27.865Z,16.53
2018-08-17T06:13:57.894Z,13.63
2018-08-17T06:16:28.014Z,12.07
2018-08-17T06:18:58.157Z,10.90
2018-08-17T06:21:28.293Z,11.87
2018-08-17T06:23:58.521Z,10.30
2018-08-17T06:26:28.635Z,10.80
2018-08-17T06:28:58.797Z,10.60
2018-08-17T06:31:28.922Z,11.40
2018-08-17T06:33:59.038Z,17.20
2018-08-17T06:36:29.192Z,11.63
2018-08-17T06:38:59.351Z,13.47
2018-08-17T06:41:29.360Z,13.60
2018-08-17T06:43:59.485Z,17.87
2018-08-17T06:46:29.622Z,16.87
2018-08-17T06:48:59.809Z,14.30
2018-08-17T06:51:30.077Z,13.33
2018-08-17T06:54:00.229Z,13.33
2018-08-17T06:56:30.322Z,15.37
2018-08-17T06:59:00.499Z,16.33
2018-08-17T07:01:30.603Z,14.20
2018-08-17T07:04:00.895Z,11.43
2018-08-17T07:06:30.977Z,12.60
2018-08-17T07:09:01.179Z,11.47
2018-08-17T07:11:31.257Z,10.37
2018-08-17T07:14:01.442Z,9.37
2018-08-17T07:16:31.562Z,7.70
2018-08-17T07:19:01.696Z,10.03
2018-08-17T07:21:31.819Z,13.50
2018-08-17T07:24:01.976Z,14.03
2018-08-17T07:26:32.091Z,11.97
2018-08-17T07:29:02.241Z,14.07
2018-08-17T07:31:32.392Z,18.10
2018-08-17T07:34:02.552Z,15.37
2018-08-17T07:36:32.666Z,11.77
2018-08-17T07:39:02.797Z,15.50
2018-08-17T07:41:32.921Z,13.10
2018-08-17T07:44:03.390Z,14.87
2018-08-17T07:46:33.533Z,17.37
2018-08-17T07:49:03.709Z,14.37
2018-08-17T07:51:33.836Z,12.10
2018-08-17T07:54:03.991Z,8.77
2018-08-17T07:56:34.110Z,8.83
2018-08-17T07:59:04.259Z,10.60
2018-08-17T08:01:34.317Z,6.93
2018-08-17T08:04:04.472Z,6.30
2018-08-17T08:06:34.548Z,6.10
2018-08-17T08:09:06.387Z,6.23
2018-08-17T08:11:36.510Z,9.70
2018-08-17T08:14:06.670Z,7.23
2018-08-17T08:16:36.851Z,6.10
2018-08-17T08:19:13.294Z,7.00
2018-08-17T08:21:50.911Z,7.10
2018-08-17T08:24:21.175Z,8.20
2018-08-17T08:29:32.579Z,5.90
2018-08-17T08:32:02.677Z,4.70
2018-08-17T08:34:32.832Z,6.20
2018-08-17T08:37:02.928Z,6.90
2018-08-17T08:39:33.102Z,7.43
2018-08-17T08:42:03.287Z,8.13
2018-08-17T08:44:33.423Z,14.20
2018-08-17T08:47:03.511Z,14.83
2018-08-17T08:49:33.632Z,19.70
2018-08-17T08:52:03.830Z,22.10
2018-08-17T08:54:34.018Z,24.17
2018-08-17T08:57:04.134Z,23.20
2018-08-17T08:59:34.232Z,25.03
2018-08-17T09:02:04.391Z,49.53
2018-08-17T09:04:34.508Z,29.33
2018-08-17T09:07:04.592Z,26.03
2018-08-17T09:09:34.815Z,33.77
2018-08-17T09:12:04.949Z,28.87
2018-08-17T09:14:35.068Z,27.53
2018-08-17T09:17:05.200Z,24.37
2018-08-17T09:19:35.343Z,21.73
2018-08-17T09:22:05.605Z,25.10
2018-08-17T09:24:35.731Z,28.93
2018-08-17T09:27:06.279Z,17.80
2018-08-17T09:29:36.436Z,17.87
2018-08-17T09:32:07.563Z,18.97
2018-08-17T09:34:37.668Z,17.43
2018-08-17T09:37:08.053Z,16.43
2018-08-17T09:39:38.162Z,20.53
2018-08-17T09:42:08.414Z,17.77
2018-08-17T09:44:38.527Z,15.57
2018-08-17T09:47:08.736Z,19.13
2018-08-17T09:49:38.881Z,14.10
2018-08-17T09:52:09.000Z,13.80
2018-08-17T09:54:39.124Z,10.47
2018-08-17T09:57:09.195Z,12.80
2018-08-17T09:59:39.336Z,10.40
2018-08-17T10:02:14.621Z,8.40
2018-08-17T10:04:49.798Z,7.80
2018-08-17T10:07:24.906Z,10.20
2018-08-17T10:10:00.195Z,10.10
2018-08-17T10:12:30.272Z,11.97
2018-08-17T10:15:00.429Z,9.00
2018-08-17T10:17:30.597Z,14.40
2018-08-17T10:20:00.771Z,17.23
2018-08-17T10:22:30.936Z,12.70
2018-08-17T10:25:12.060Z,15.27
2018-08-17T10:27:42.210Z,16.33
2018-08-17T10:30:12.461Z,17.73
2018-08-17T10:32:47.696Z,11.87
2018-08-17T10:35:23.025Z,7.30
2018-08-17T10:37:55.715Z,7.20
2018-08-17T10:40:26.394Z,6.33
2018-08-17T10:42:56.647Z,7.10
2018-08-17T10:45:27.542Z,5.23
2018-08-17T10:47:58.047Z,6.20
2018-08-17T10:50:29.342Z,6.40
2018-08-17T10:53:01.484Z,5.33
2018-08-17T10:55:40.506Z,5.70
2018-08-17T10:58:16.578Z,6.40
2018-08-17T11:00:46.695Z,7.40
2018-08-17T11:03:16.762Z,6.77
2018-08-17T11:05:46.876Z,7.20
2018-08-17T11:08:16.951Z,7.17
2018-08-17T11:10:47.050Z,6.00
2018-08-17T11:13:17.177Z,6.47
2018-08-17T11:15:47.364Z,4.60
2018-08-17T11:18:17.467Z,5.37
2018-08-17T11:20:47.576Z,5.90
2018-08-17T11:23:17.662Z,7.73
2018-08-17T11:25:47.758Z,6.90
2018-08-17T11:28:17.846Z,5.50
2018-08-17T11:30:48.058Z,6.00
2018-08-17T11:33:20.228Z,7.20
2018-08-17T11:35:50.340Z,7.40
2018-08-17T11:38:20.525Z,6.93
2018-08-17T11:40:50.701Z,4.17
2018-08-17T11:43:20.871Z,7.57
2018-08-17T11:45:50.959Z,9.87
2018-08-17T11:48:28.020Z,6.83
2018-08-17T11:50:58.580Z,6.70
2018-08-17T11:53:28.728Z,5.77
2018-08-17T11:55:58.965Z,8.67
2018-08-17T11:58:29.039Z,5.23
2018-08-17T12:00:59.267Z,4.93
2018-08-17T12:03:30.126Z,7.20
2018-08-17T12:06:00.262Z,3.97
2018-08-17T12:08:30.341Z,4.30
2018-08-17T12:11:04.588Z,6.07
2018-08-17T12:13:38.175Z,4.30
2018-08-17T12:16:12.119Z,5.70
2018-08-17T12:18:42.230Z,3.30
2018-08-17T12:21:12.428Z,4.90
2018-08-17T12:23:42.486Z,6.77
2018-08-17T12:26:12.995Z,6.90
2018-08-17T12:28:43.047Z,5.37
2018-08-17T12:31:13.122Z,5.57
2018-08-17T12:33:43.233Z,8.17
2018-08-17T12:36:13.317Z,9.90
2018-08-17T12:38:43.435Z,11.83
2018-08-17T12:41:13.625Z,10.60
2018-08-17T12:43:43.683Z,10.80
2018-08-17T12:46:13.780Z,9.30
2018-08-17T12:48:43.829Z,8.80
2018-08-17T12:51:13.958Z,9.03
2018-08-17T12:53:44.089Z,8.40
2018-08-17T12:56:14.323Z,6.00
2018-08-17T12:58:44.373Z,7.07
2018-08-17T13:01:14.458Z,5.70
2018-08-17T13:03:44.520Z,11.90
2018-08-17T13:06:14.682Z,7.57
2018-08-17T13:08:44.758Z,10.40
2018-08-17T13:11:14.893Z,7.87
2018-08-17T13:13:45.005Z,8.47
2018-08-17T13:16:15.093Z,9.30
2018-08-17T13:18:45.262Z,12.90
2018-08-17T13:21:15.326Z,7.93
2018-08-17T13:23:48.143Z,5.60
2018-08-17T13:26:18.248Z,6.53
2018-08-17T13:28:48.301Z,4.97
2018-08-17T13:31:18.366Z,8.20
2018-08-17T13:33:48.414Z,6.93
2018-08-17T13:36:18.600Z,8.87
2018-08-17T13:38:48.774Z,6.80
2018-08-17T13:41:19.075Z,7.27
2018-08-17T13:43:49.199Z,7.77
2018-08-17T13:46:19.583Z,8.80
2018-08-17T13:48:49.676Z,9.07
2018-08-17T13:51:19.848Z,10.80
2018-08-17T13:53:50.032Z,12.87
2018-08-17T13:56:20.214Z,7.83
2018-08-17T13:58:50.384Z,6.93
2018-08-17T14:01:20.508Z,5.53
2018-08-17T14:03:50.612Z,8.10
2018-08-17T14:06:20.770Z,10.00
2018-08-17T14:08:50.871Z,7.07
2018-08-17T14:11:20.980Z,6.97
2018-08-17T14:13:51.071Z,5.30
2018-08-17T14:16:21.205Z,10.10
2018-08-17T14:18:51.334Z,8.57
2018-08-17T14:21:21.478Z,6.83
2018-08-17T14:23:51.599Z,10.87
2018-08-17T14:26:21.734Z,7.70
2018-08-17T14:28:51.835Z,5.23
2018-08-17T14:31:21.972Z,8.43
2018-08-17T14:33:52.132Z,8.10
2018-08-17T14:36:22.425Z,4.73
2018-08-17T14:38:52.519Z,6.47
2018-08-17T14:41:22.737Z,6.70
2018-08-17T14:43:52.883Z,7.57
2018-08-17T14:46:23.096Z,5.13
2018-08-17T14:48:53.241Z,7.20
2018-08-17T14:51:23.299Z,7.93
2018-08-17T14:53:53.431Z,6.23
2018-08-17T14:56:23.548Z,9.00
2018-08-17T14:58:53.614Z,4.43
2018-08-17T15:01:23.746Z,5.43
2018-08-17T15:03:53.975Z,4.43
2018-08-17T15:06:24.115Z,4.53
2018-08-17T15:08:54.266Z,4.33
2018-08-17T15:11:24.471Z,6.50
2018-08-17T15:13:54.548Z,3.30
2018-08-17T15:16:24.670Z,4.43
2018-08-17T15:18:54.898Z,3.60
2018-08-17T15:21:25.135Z,7.17
2018-08-17T15:23:55.319Z,8.43
2018-08-17T15:26:25.679Z,4.03
2018-08-17T15:28:55.759Z,3.80
2018-08-17T15:31:25.905Z,5.87
2018-08-17T15:33:56.123Z,5.27
2018-08-17T15:36:26.248Z,11.90
2018-08-17T15:38:56.411Z,4.77
2018-08-17T15:41:26.653Z,2.33
2018-08-17T15:43:56.726Z,5.40
2018-08-17T15:46:26.992Z,3.27
2018-08-17T15:48:57.584Z,4.63
2018-08-17T15:51:27.686Z,4.00
2018-08-17T15:53:57.725Z,5.60
2018-08-17T15:56:27.865Z,3.70
2018-08-17T15:58:58.006Z,3.20
2018-08-17T16:01:28.305Z,3.07
2018-08-17T16:03:58.404Z,3.23
2018-08-17T16:06:28.714Z,6.30
2018-08-17T16:08:58.811Z,5.87
2018-08-17T16:11:28.940Z,5.90
2018-08-17T16:13:59.045Z,5.40
2018-08-17T16:16:29.171Z,9.10
2018-08-17T16:18:59.316Z,4.20
2018-08-17T16:21:29.570Z,4.83
2018-08-17T16:23:59.683Z,6.70
2018-08-17T16:26:29.845Z,7.40
2018-08-17T16:29:00.067Z,3.70
2018-08-17T16:31:36.740Z,8.33
2018-08-17T16:34:07.328Z,3.97
2018-08-17T16:36:40.562Z,3.70
2018-08-17T16:39:17.898Z,6.13
2018-08-17T16:41:48.146Z,4.30
2018-08-17T16:44:18.213Z,4.60
2018-08-17T16:46:48.375Z,4.70
2018-08-17T16:49:18.486Z,7.30
2018-08-17T16:51:48.642Z,4.60
2018-08-17T16:54:18.734Z,3.03
2018-08-17T16:56:48.919Z,3.57
2018-08-17T16:59:18.972Z,3.23
2018-08-17T17:01:49.098Z,6.10
2018-08-17T17:04:19.181Z,6.73
2018-08-17T17:06:49.319Z,4.93
2018-08-17T17:09:19.364Z,3.70
2018-08-17T17:11:49.587Z,2.43
2018-08-17T17:14:19.636Z,3.73
2018-08-17T17:16:49.765Z,1.63
2018-08-17T17:19:21.918Z,3.20
2018-08-17T17:21:52.588Z,3.80
2018-08-17T17:24:22.781Z,2.77
2018-08-17T17:26:52.931Z,3.23
2018-08-17T17:29:23.059Z,4.60
2018-08-17T17:31:53.296Z,3.20
2018-08-17T17:34:23.356Z,4.63
2018-08-17T17:36:53.475Z,4.47
2018-08-17T17:39:23.582Z,2.10
2018-08-17T17:41:53.735Z,5.13
2018-08-17T17:44:23.837Z,5.40
2018-08-17T17:46:54.014Z,2.00
2018-08-17T17:49:24.305Z,3.50
2018-08-17T17:51:54.553Z,3.60
2018-08-17T17:54:26.601Z,4.53
2018-08-17T17:57:02.110Z,2.70
2018-08-17T17:59:32.225Z,5.57
2018-08-17T18:02:02.366Z,2.20
2018-08-17T18:04:32.507Z,3.73
2018-08-17T18:07:02.647Z,4.80
2018-08-17T18:09:32.797Z,4.83
2018-08-17T18:12:03.035Z,2.83
2018-08-17T18:14:33.194Z,4.03
2018-08-17T18:17:03.325Z,4.40
2018-08-17T18:19:33.402Z,3.30
2018-08-17T18:22:03.537Z,5.10
2018-08-17T18:24:33.679Z,3.20
2018-08-17T18:27:03.904Z,4.60
2018-08-17T18:29:33.977Z,5.23
2018-08-17T18:32:04.197Z,7.30
2018-08-17T18:34:34.367Z,5.57
2018-08-17T18:37:04.495Z,3.80
2018-08-17T18:39:34.530Z,5.50
2018-08-17T18:42:04.620Z,5.17
2018-08-17T18:44:34.687Z,5.73
2018-08-17T18:47:04.875Z,11.33
2018-08-17T18:49:34.901Z,3.30
2018-08-17T18:52:05.266Z,6.27
2018-08-17T18:54:35.461Z,9.90
2018-08-17T18:57:05.652Z,5.63
2018-08-17T18:59:35.770Z,4.20
2018-08-17T19:02:05.937Z,3.33
2018-08-17T19:04:36.055Z,4.70
2018-08-17T19:07:06.320Z,5.40
2018-08-17T19:09:36.409Z,5.50
2018-08-17T19:12:06.633Z,5.53
2018-08-17T19:14:42.470Z,3.90
2018-08-17T19:17:17.774Z,4.93
2018-08-17T19:19:47.930Z,3.73
2018-08-17T19:22:18.145Z,9.23
2018-08-17T19:24:48.393Z,4.50
2018-08-17T19:27:53.870Z,8.43
2018-08-17T19:30:29.144Z,7.57
2018-08-17T19:33:03.002Z,4.07
2018-08-17T19:35:33.089Z,6.67
2018-08-17T19:38:03.220Z,5.63
2018-08-17T19:40:33.335Z,5.53
2018-08-17T19:43:03.502Z,6.50
2018-08-17T19:45:33.563Z,4.40
2018-08-17T19:48:03.813Z,4.43
2018-08-17T19:50:33.981Z,10.00
2018-08-17T19:53:04.091Z,7.83
2018-08-17T19:55:34.178Z,7.30
2018-08-17T19:58:04.465Z,6.00
2018-08-17T20:00:34.590Z,6.83
2018-08-17T20:03:04.768Z,5.00
2018-08-17T20:05:34.831Z,3.07
2018-08-17T20:08:05.042Z,5.37
2018-08-17T20:10:35.170Z,5.03
2018-08-17T20:13:05.356Z,6.23
2018-08-17T20:15:35.595Z,5.03
2018-08-17T20:18:06.161Z,5.87
2018-08-17T20:20:36.271Z,13.70
2018-08-17T20:23:07.353Z,8.83
2018-08-17T20:25:37.563Z,7.97
2018-08-17T20:28:07.650Z,11.87
2018-08-17T20:30:37.767Z,4.80
2018-08-17T20:33:18.369Z,7.87
2018-08-17T20:35:48.462Z,11.60
2018-08-17T20:38:18.613Z,8.13
2018-08-17T20:40:48.746Z,6.10
2018-08-17T20:43:18.887Z,7.93
2018-08-17T20:45:48.967Z,6.43
2018-08-17T20:48:19.059Z,11.20
2018-08-17T20:50:49.166Z,7.07
2018-08-17T20:53:21.463Z,6.47
2018-08-17T20:55:51.580Z,14.87
2018-08-17T20:58:21.722Z,6.60
2018-08-17T21:00:51.876Z,7.70
2018-08-17T21:03:22.012Z,9.23
2018-08-17T21:05:52.104Z,6.37
2018-08-17T21:08:22.253Z,6.77
2018-08-17T21:10:52.379Z,9.43
2018-08-17T21:13:22.539Z,5.10
2018-08-17T21:15:52.676Z,11.67
2018-08-17T21:18:22.799Z,7.53
2018-08-17T21:20:52.961Z,6.37
2018-08-17T21:23:23.065Z,6.57
2018-08-17T21:25:53.186Z,6.10
2018-08-17T21:28:23.961Z,6.10
2018-08-17T21:30:54.154Z,12.90
2018-08-17T21:33:24.323Z,9.07
2018-08-17T21:35:54.450Z,7.60
2018-08-17T21:38:24.609Z,6.37
2018-08-17T21:40:54.783Z,5.40
2018-08-17T21:43:24.988Z,7.40
2018-08-17T21:45:59.048Z,7.07
2018-08-17T21:48:29.607Z,7.50
2018-08-17T21:50:59.749Z,8.53
2018-08-17T21:53:29.955Z,6.23
2018-08-17T21:56:00.373Z,11.80
2018-08-17T21:58:30.989Z,6.17
2018-08-17T22:01:01.678Z,8.70
2018-08-17T22:03:33.640Z,8.13
2018-08-17T22:06:04.041Z,5.27
2018-08-17T22:08:34.334Z,5.73
2018-08-17T22:11:04.635Z,6.50
2018-08-17T22:13:36.600Z,9.53
2018-08-17T22:16:06.912Z,6.07
2018-08-17T22:18:37.263Z,5.90
2018-08-17T22:21:07.423Z,7.97
2018-08-17T22:23:37.608Z,10.00
2018-08-17T22:26:07.875Z,6.00
2018-08-17T22:28:38.022Z,8.13
2018-08-17T22:31:08.322Z,9.43
2018-08-17T22:33:38.500Z,8.70
2018-08-17T22:36:12.680Z,6.90
2018-08-17T22:38:46.157Z,10.10
2018-08-17T22:41:16.445Z,8.03
2018-08-17T22:43:46.625Z,9.80
2018-08-17T22:46:16.958Z,9.70
2018-08-17T22:48:47.259Z,7.23
2018-08-17T22:51:17.462Z,7.40
2018-08-17T22:53:47.711Z,6.07
2018-08-17T22:56:18.023Z,12.90
2018-08-17T22:58:48.942Z,15.40
2018-08-17T23:01:21.206Z,6.37
2018-08-17T23:03:55.166Z,8.53
2018-08-17T23:06:26.975Z,12.73
2018-08-17T23:08:57.681Z,10.13
2018-08-17T23:11:36.694Z,8.50
2018-08-17T23:14:12.205Z,7.97
2018-08-17T23:16:42.966Z,8.30
2018-08-17T23:19:13.064Z,8.57
2018-08-17T23:21:43.709Z,8.07
2018-08-17T23:24:13.903Z,9.13
2018-08-17T23:26:43.983Z,8.23
2018-08-17T23:29:14.060Z,9.60
2018-08-17T23:31:44.159Z,9.80
2018-08-17T23:34:14.232Z,8.43
2018-08-17T23:36:44.343Z,11.50
2018-08-17T23:39:14.472Z,12.77
2018-08-17T23:41:44.533Z,13.00
2018-08-17T23:44:14.656Z,11.23
2018-08-17T23:46:44.662Z,9.40
2018-08-17T23:49:14.705Z,9.57
2018-08-17T23:51:44.766Z,10.77
2018-08-17T23:54:14.856Z,9.77
2018-08-17T23:56:44.992Z,8.80
2018-08-17T23:59:15.069Z,8.93
